Time;durP1;ratioP1;P1;durP2;ratioP2;P2;SDS_P1;SDS_P2;PMS_P1;PMS_P2;Temp;Humidity;BMP_temperature;BMP_pressure;BME280_temperature;BME280_humidity;BME280_pressure;Samples;Min_cycle;Max_cycle;Signal;HPM_P1;HPM_P2
2022/01/27 00:01:58;;;;;;;;;31.40;27.00;;;;;7.42;54.61;99357.03;6211609;28;97203;-73
2022/01/27 00:05:14;;;;;;;;;29.25;26.50;;;;;7.40;54.53;99357.19;6207784;28;98284;-73
2022/01/27 00:08:21;;;;;;;;;32.80;28.20;;;;;7.27;54.65;99359.75;6205735;28;96763;-73
2022/01/27 00:11:26;;;;;;;;;28.80;26.00;;;;;7.33;54.60;99363.53;6223265;28;96622;-72
2022/01/27 00:14:29;;;;;;;;;33.00;29.00;;;;;7.09;54.99;99364.66;6226061;28;97430;-72
2022/01/27 00:17:33;;;;;;;;;27.00;23.50;;;;;7.26;54.74;99359.94;6212933;28;97553;-70
2022/01/27 00:20:36;;;;;;;;;26.80;24.80;;;;;7.15;54.95;99358.56;6193158;28;96976;-72
2022/01/27 00:23:41;;;;;;;;;25.00;23.40;;;;;7.11;55.01;99386.78;6219456;28;97496;-72
2022/01/27 00:26:46;;;;;;;;;25.20;22.60;;;;;7.01;55.15;99393.44;6198507;28;96877;-72
2022/01/27 00:29:49;;;;;;;;;27.20;23.20;;;;;6.85;55.49;99403.34;6224509;28;97688;-73
2022/01/27 00:32:54;;;;;;;;;20.20;18.80;;;;;6.93;55.35;99400.56;6203435;28;97461;-72
2022/01/27 00:35:57;;;;;;;;;24.00;19.80;;;;;7.07;55.07;99398.06;6196803;28;98979;-72
2022/01/27 00:39:01;;;;;;;;;25.20;23.00;;;;;7.13;54.93;99408.88;6198597;28;97348;-72
2022/01/27 00:42:06;;;;;;;;;24.00;22.00;;;;;7.08;54.98;99397.88;6212832;28;98406;-71
2022/01/27 00:45:10;;;;;;;;;21.75;19.75;;;;;6.76;55.01;99383.00;6212013;28;100084;-72
2022/01/27 00:48:16;;;;;;;;;26.40;22.00;;;;;7.02;54.80;99400.47;6211769;28;97286;-71
2022/01/27 00:51:23;;;;;;;;;23.60;20.60;;;;;7.01;55.25;99394.28;6209866;28;98639;-72
2022/01/27 00:54:27;;;;;;;;;23.00;20.00;;;;;7.05;55.17;99392.03;6203095;28;98078;-70
2022/01/27 00:57:41;;;;;;;;;24.00;21.75;;;;;7.07;55.27;99390.00;6206716;28;97676;-72
2022/01/27 01:00:53;;;;;;;;;20.60;20.00;;;;;7.19;55.00;99399.22;6188889;28;97010;-70
2022/01/27 01:04:00;;;;;;;;;25.60;20.00;;;;;7.17;54.74;99398.59;6207161;28;96662;-70
2022/01/27 01:07:05;;;;;;;;;20.75;19.75;;;;;7.14;54.93;99386.38;6223801;28;96620;-74
2022/01/27 01:17:07;;;;;;;;;19.20;18.00;;;;;7.03;54.86;99378.84;6210059;28;96885;-72
2022/01/27 01:30:48;;;;;;;;;21.50;19.50;;;;;7.07;54.72;99374.75;6165888;28;96922;-71
2022/01/27 01:33:58;;;;;;;;;20.60;19.40;;;;;7.02;54.94;99365.63;6183286;28;98355;-72
2022/01/27 01:37:04;;;;;;;;;25.00;21.00;;;;;6.96;55.04;99368.03;6165462;28;97737;-71
2022/01/27 01:40:09;;;;;;;;;20.25;19.00;;;;;6.89;55.01;99366.28;6171702;28;96929;-72
2022/01/27 01:43:12;;;;;;;;;22.00;19.00;;;;;6.97;54.90;99377.75;6170257;28;97442;-72
2022/01/27 01:46:17;;;;;;;;;17.20;17.00;;;;;6.82;54.88;99349.28;6170286;28;97077;-70
2022/01/27 01:49:22;;;;;;;;;20.25;18.25;;;;;6.95;54.90;99376.25;6169148;28;97365;-70
2022/01/27 01:52:26;;;;;;;;;19.20;18.00;;;;;6.80;55.20;99368.22;6183459;28;96694;-72
2022/01/27 01:55:33;;;;;;;;;20.40;17.40;;;;;6.69;55.33;99360.66;6207098;28;96654;-70
2022/01/27 01:58:36;;;;;;;;;21.60;19.20;;;;;6.67;55.59;99354.66;6211468;28;97840;-72
2022/01/27 02:01:41;;;;;;;;;19.40;17.00;;;;;6.56;55.86;99348.91;6205959;28;98093;-72
2022/01/27 02:04:46;;;;;;;;;21.00;19.00;;;;;6.48;55.72;99315.03;6191308;28;97992;-72
2022/01/27 02:08:11;;;;;;;;;21.00;19.00;;;;;6.57;55.72;99345.22;6202230;28;97309;-70
2022/01/27 02:18:07;;;;;;;;;24.60;21.00;;;;;6.47;56.21;99338.31;6197512;28;97095;-71
2022/01/27 02:21:11;;;;;;;;;22.50;19.00;;;;;6.50;56.07;99345.13;6202371;28;97797;-69
2022/01/27 02:24:17;;;;;;;;;22.00;19.00;;;;;6.43;56.43;99341.53;6209851;28;98196;-71
2022/01/27 02:27:21;;;;;;;;;23.75;20.00;;;;;6.31;56.63;99324.25;6211074;28;97154;-69
2022/01/27 02:30:25;;;;;;;;;24.00;20.80;;;;;6.16;56.69;99307.38;6208230;28;96876;-72
2022/01/27 02:33:32;;;;;;;;;27.00;23.00;;;;;6.22;56.93;99318.16;6201216;28;96485;-71
2022/01/27 02:36:37;;;;;;;;;25.20;22.00;;;;;6.34;56.61;99314.03;6197204;28;97960;-72
2022/01/27 02:39:40;;;;;;;;;28.00;26.00;;;;;6.35;56.52;99315.66;6210519;28;97793;-69
2022/01/27 02:42:44;;;;;;;;;26.00;24.00;;;;;6.45;56.19;99307.38;6212586;28;96644;-71
2022/01/27 02:45:55;;;;;;;;;25.00;22.00;;;;;6.47;55.92;99313.34;6206535;28;96902;-72
2022/01/27 02:48:59;;;;;;;;;25.75;25.75;;;;;6.08;55.82;99268.09;6220300;28;97098;-70
2022/01/27 02:52:04;;;;;;;;;25.00;22.60;;;;;6.33;55.86;99309.66;6205304;28;97315;-69
2022/01/27 02:55:09;;;;;;;;;26.00;24.00;;;;;6.32;55.70;99302.66;6211304;28;97348;-71
2022/01/27 02:58:13;;;;;;;;;28.80;23.80;;;;;6.28;55.60;99308.56;6203870;28;96803;-71
2022/01/27 03:01:19;;;;;;;;;24.60;22.00;;;;;6.34;55.39;99322.06;6209331;28;97870;-71
2022/01/27 03:04:24;;;;;;;;;23.80;22.00;;;;;6.40;55.42;99313.25;6202418;28;99705;-71
2022/01/27 03:07:29;;;;;;;;;21.75;20.00;;;;;6.44;55.17;99313.75;6203353;28;98322;-71
2022/01/27 03:10:39;;;;;;;;;23.75;21.50;;;;;6.46;54.87;99299.13;6202925;28;96618;-72
2022/01/27 03:13:42;;;;;;;;;19.50;18.50;;;;;6.48;54.90;99307.00;6207299;28;97332;-72
2022/01/27 03:16:46;;;;;;;;;22.80;20.40;;;;;6.47;54.76;99305.31;6203418;28;97471;-72
2022/01/27 03:19:51;;;;;;;;;21.40;18.40;;;;;6.37;54.72;99297.56;6211761;28;97465;-71
2022/01/27 03:22:56;;;;;;;;;18.00;17.00;;;;;6.36;54.94;99293.22;6209042;28;97441;-72
2022/01/27 03:25:59;;;;;;;;;18.25;17.00;;;;;6.37;54.75;99294.88;6208681;28;96831;-70
2022/01/27 03:29:03;;;;;;;;;19.00;17.00;;;;;6.36;54.95;99292.38;6210597;28;99413;-72
2022/01/27 03:32:07;;;;;;;;;18.00;17.60;;;;;6.30;55.09;99290.47;6212431;28;97894;-71
2022/01/27 03:35:10;;;;;;;;;22.00;19.00;;;;;6.28;55.40;99277.25;6212972;28;99655;-70
2022/01/27 03:38:15;;;;;;;;;20.00;19.00;;;;;6.24;55.26;99272.47;6198832;28;97614;-71
2022/01/27 03:41:21;;;;;;;;;17.00;16.00;;;;;6.35;55.01;99275.50;6207332;28;97745;-71
2022/01/27 03:44:25;;;;;;;;;20.40;18.00;;;;;6.18;55.15;99265.16;6213937;28;96968;-70
2022/01/27 03:47:29;;;;;;;;;19.00;18.00;;;;;6.12;55.38;99247.16;6196813;28;98234;-72
2022/01/27 03:50:33;;;;;;;;;18.40;16.40;;;;;6.20;55.10;99247.06;6214052;28;97387;-72
2022/01/27 03:53:37;;;;;;;;;15.00;14.40;;;;;6.37;54.74;99248.53;6210072;28;97482;-70
2022/01/27 03:56:41;;;;;;;;;18.00;16.00;;;;;6.35;54.59;99251.38;6213978;28;96668;-71
2022/01/27 03:59:44;;;;;;;;;17.75;16.00;;;;;6.30;54.48;99251.16;6212650;28;96663;-72
2022/01/27 04:06:09;;;;;;;;;15.00;13.80;;;;;6.45;54.03;99243.91;6207292;28;96364;-70
2022/01/27 04:09:13;;;;;;;;;17.00;16.00;;;;;6.54;54.12;99236.63;6214384;28;97206;-71
2022/01/27 04:12:17;;;;;;;;;15.60;14.60;;;;;6.51;53.82;99242.31;6215624;28;98618;-71
2022/01/27 04:15:20;;;;;;;;;15.00;14.00;;;;;6.36;53.57;99226.28;6209272;28;97739;-72
2022/01/27 04:18:23;;;;;;;;;17.00;14.80;;;;;6.64;53.31;99255.06;6210009;28;97376;-72
2022/01/27 04:21:27;;;;;;;;;17.00;15.00;;;;;6.73;53.18;99256.63;6208904;28;98042;-72
2022/01/27 04:24:31;;;;;;;;;13.40;13.00;;;;;6.72;53.03;99254.94;6209905;28;97716;-70
2022/01/27 04:27:38;;;;;;;;;13.80;12.40;;;;;6.73;53.13;99251.25;6212515;28;98106;-72
2022/01/27 04:30:45;;;;;;;;;14.00;13.00;;;;;6.83;52.80;99249.94;6201425;28;96764;-71
2022/01/27 04:33:48;;;;;;;;;19.67;17.00;;;;;6.79;52.57;99250.50;6209727;28;97440;-72
2022/01/27 04:36:53;;;;;;;;;18.00;15.60;;;;;6.82;52.86;99250.97;6206240;28;98552;-70
2022/01/27 04:40:06;;;;;;;;;16.00;15.00;;;;;6.97;52.46;99251.75;6210899;28;96939;-72
2022/01/27 04:43:19;;;;;;;;;16.00;14.00;;;;;6.92;52.78;99222.00;6178635;28;96985;-71
2022/01/27 04:46:30;;;;;;;;;16.75;15.00;;;;;7.10;52.55;99234.13;6196357;28;97886;-72
2022/01/27 04:49:34;;;;;;;;;15.00;13.40;;;;;7.05;52.53;99225.81;6202179;28;99888;-71
2022/01/27 04:52:41;;;;;;;;;16.00;14.00;;;;;7.14;52.50;99238.09;6203286;28;97535;-71
2022/01/27 04:55:46;;;;;;;;;15.75;14.75;;;;;7.27;52.65;99243.59;6203044;28;97141;-71
2022/01/27 04:58:53;;;;;;;;;14.25;13.25;;;;;7.21;52.53;99245.19;6211068;28;96674;-69
2022/01/27 05:02:01;;;;;;;;;14.20;12.60;;;;;7.24;52.69;99247.47;6209766;28;98557;-69
2022/01/27 05:05:05;;;;;;;;;12.00;11.40;;;;;7.12;52.75;99254.38;6205033;28;97275;-72
2022/01/27 05:08:22;;;;;;;;;18.00;16.00;;;;;7.10;52.91;99244.84;6192811;28;98489;-70
2022/01/27 05:11:30;;;;;;;;;16.20;14.80;;;;;7.13;52.87;99239.97;6207424;28;98588;-69
2022/01/27 05:14:34;;;;;;;;;15.00;14.00;;;;;7.19;52.71;99233.81;6189982;28;98526;-69
2022/01/27 05:17:37;;;;;;;;;17.00;16.00;;;;;7.29;52.53;99230.81;6202263;28;97827;-71
2022/01/27 05:20:40;;;;;;;;;18.00;17.00;;;;;7.31;52.48;99232.28;6201226;28;99454;-69
2022/01/27 05:23:43;;;;;;;;;16.33;16.00;;;;;7.36;52.11;99227.19;6201499;28;98128;-69
2022/01/27 05:26:48;;;;;;;;;18.20;16.20;;;;;7.30;52.34;99227.94;6201946;28;97792;-70
2022/01/27 05:29:52;;;;;;;;;17.00;17.00;;;;;7.26;52.14;99233.88;6200428;28;97551;-71
2022/01/27 05:32:55;;;;;;;;;17.80;16.40;;;;;7.32;52.18;99225.91;6222770;28;97329;-68
2022/01/27 05:35:58;;;;;;;;;18.60;16.60;;;;;7.34;52.23;99231.06;6199126;28;97085;-70
2022/01/27 05:39:02;;;;;;;;;17.25;15.00;;;;;7.36;51.79;99224.50;6214056;28;98231;-70
2022/01/27 05:42:07;;;;;;;;;18.00;16.00;;;;;7.30;52.20;99225.25;6188104;28;96606;-70
2022/01/27 05:45:11;;;;;;;;;20.00;17.00;;;;;7.32;51.96;99223.22;6199932;28;96779;-71
2022/01/27 05:48:15;;;;;;;;;18.40;17.00;;;;;7.18;52.29;99229.50;6206272;28;97260;-70
2022/01/27 05:51:18;;;;;;;;;18.80;18.20;;;;;7.18;52.44;99218.78;6211596;28;96782;-70
2022/01/27 05:54:21;;;;;;;;;19.50;17.50;;;;;7.14;52.42;99205.91;6212983;28;97091;-70
2022/01/27 05:57:26;;;;;;;;;18.40;18.00;;;;;7.09;52.42;99219.06;6213370;28;97314;-70
2022/01/27 06:00:31;;;;;;;;;16.00;15.20;;;;;6.96;52.82;99220.59;6212958;28;97472;-71
2022/01/27 06:03:34;;;;;;;;;20.20;18.20;;;;;6.97;52.79;99218.75;6203785;28;97445;-70
2022/01/27 06:06:38;;;;;;;;;21.00;19.00;;;;;7.06;52.75;99209.56;6192166;28;98203;-70
2022/01/27 06:09:41;;;;;;;;;23.00;20.00;;;;;6.99;52.79;99210.53;6200299;28;96381;-71
2022/01/27 06:12:48;;;;;;;;;22.75;20.25;;;;;7.07;52.69;99202.34;6207119;28;97102;-70
2022/01/27 06:15:51;;;;;;;;;20.60;19.00;;;;;7.06;52.63;99192.66;6209002;28;98417;-68
2022/01/27 06:18:55;;;;;;;;;24.20;21.20;;;;;7.06;52.57;99192.66;6207225;28;98008;-69
2022/01/27 06:21:58;;;;;;;;;23.60;22.40;;;;;7.15;52.29;99188.81;6190829;28;98415;-71
2022/01/27 06:25:02;;;;;;;;;25.00;23.60;;;;;7.09;52.07;99181.53;6208252;28;98362;-70
2022/01/27 06:28:07;;;;;;;;;22.50;19.00;;;;;7.17;51.81;99184.09;6195633;28;97715;-71
2022/01/27 06:31:10;;;;;;;;;24.80;21.00;;;;;7.15;51.59;99151.28;6193866;28;96766;-69
2022/01/27 06:34:13;;;;;;;;;26.00;22.00;;;;;7.19;51.85;99163.25;6207401;28;96579;-71
2022/01/27 06:37:18;;;;;;;;;24.00;20.80;;;;;7.05;51.53;99122.09;6197242;28;96875;-70
2022/01/27 06:40:21;;;;;;;;;18.00;17.00;;;;;7.27;51.35;99155.09;6197120;28;97964;-69
2022/01/27 06:43:26;;;;;;;;;21.20;18.00;;;;;7.42;51.26;99163.88;6194389;28;97165;-69
2022/01/27 06:46:29;;;;;;;;;20.60;18.00;;;;;7.50;51.00;99160.22;6204099;28;99455;-69
2022/01/27 06:49:34;;;;;;;;;19.40;19.00;;;;;7.56;50.70;99170.16;6202318;28;97382;-69
2022/01/27 06:52:38;;;;;;;;;19.00;17.20;;;;;7.66;50.45;99157.25;6191487;28;96984;-68
2022/01/27 06:55:42;;;;;;;;;19.00;17.00;;;;;7.69;50.75;99144.25;6187298;28;101069;-68
2022/01/27 06:58:47;;;;;;;;;21.00;18.67;;;;;7.72;50.56;99126.94;6201298;28;97482;-69
2022/01/27 07:01:51;;;;;;;;;20.00;17.00;;;;;7.78;50.36;99126.13;6198267;28;97402;-69
2022/01/27 07:04:54;;;;;;;;;18.60;17.00;;;;;7.85;50.03;99124.31;6198123;28;98018;-69
2022/01/27 07:07:58;;;;;;;;;20.00;18.00;;;;;7.96;49.86;99134.50;6200013;28;97401;-70
2022/01/27 07:11:01;;;;;;;;;21.00;19.00;;;;;8.00;49.73;99129.56;6202106;28;96630;-71
2022/01/27 07:14:06;;;;;;;;;20.00;18.00;;;;;8.07;49.59;99119.66;6192058;28;97562;-69
2022/01/27 07:17:09;;;;;;;;;17.40;16.40;;;;;8.08;49.43;99121.31;6199826;28;98279;-71
2022/01/27 07:20:13;;;;;;;;;19.50;18.00;;;;;8.15;49.34;99117.66;6197616;28;96809;-68
2022/01/27 07:23:21;;;;;;;;;24.25;20.00;;;;;8.25;49.15;99119.97;6193799;28;96782;-69
2022/01/27 07:26:27;;;;;;;;;17.60;16.60;;;;;8.35;49.21;99127.69;6208863;28;99577;-70
2022/01/27 07:29:32;;;;;;;;;20.20;16.20;;;;;8.42;48.94;99123.13;6211569;28;98159;-70
2022/01/27 07:32:35;;;;;;;;;20.00;18.00;;;;;8.48;49.05;99116.97;6200703;28;97502;-69
2022/01/27 07:35:38;;;;;;;;;21.00;18.00;;;;;8.52;48.79;99121.72;6222122;28;96597;-70
2022/01/27 07:38:42;;;;;;;;;21.00;18.00;;;;;8.56;48.65;99117.59;6210225;28;96730;-71
2022/01/27 07:41:45;;;;;;;;;20.60;19.60;;;;;8.60;48.50;99116.16;6209341;28;96995;-70
2022/01/27 07:44:50;;;;;;;;;20.50;18.50;;;;;8.60;47.97;99116.16;6205864;28;97462;-70
2022/01/27 07:47:53;;;;;;;;;18.00;17.00;;;;;8.57;48.29;99121.94;6206726;28;96791;-69
2022/01/27 07:50:56;;;;;;;;;22.40;21.00;;;;;8.61;48.17;99108.94;6211484;28;97913;-70
2022/01/27 07:54:00;;;;;;;;;20.25;18.00;;;;;8.60;48.04;99100.03;6211368;28;97358;-70
2022/01/27 07:57:07;;;;;;;;;20.00;19.00;;;;;8.51;48.09;99098.56;6211803;28;97880;-70
2022/01/27 08:00:14;;;;;;;;;20.00;17.00;;;;;8.45;48.08;99085.13;6209611;28;96645;-69
2022/01/27 08:03:18;;;;;;;;;21.20;18.60;;;;;8.54;48.30;99097.34;6209616;28;96667;-71
2022/01/27 08:06:21;;;;;;;;;22.00;19.40;;;;;8.64;48.29;99089.72;6210818;28;97287;-69
2022/01/27 08:09:25;;;;;;;;;23.00;19.00;;;;;8.73;47.89;99082.28;6211267;28;97050;-70
2022/01/27 08:12:28;;;;;;;;;21.00;19.00;;;;;8.82;47.82;99094.50;6209112;28;97398;-69
2022/01/27 08:15:33;;;;;;;;;21.20;19.80;;;;;8.98;47.57;99088.72;6212109;28;97055;-69
2022/01/27 08:18:37;;;;;;;;;25.20;20.00;;;;;8.98;47.00;99073.41;6207846;28;97888;-70
2022/01/27 08:21:40;;;;;;;;;24.00;21.50;;;;;9.00;47.29;99067.81;6212616;28;96613;-69
2022/01/27 08:24:43;;;;;;;;;31.00;24.00;;;;;8.98;47.07;99062.66;6214139;28;97399;-69
2022/01/27 08:27:49;;;;;;;;;25.40;23.80;;;;;9.05;46.86;99051.88;6214921;28;96752;-69
2022/01/27 08:30:55;;;;;;;;;27.00;24.00;;;;;9.17;46.78;99052.91;6196653;28;96678;-69
2022/01/27 08:34:03;;;;;;;;;25.00;23.00;;;;;9.18;46.80;99048.38;6213277;28;96843;-69
2022/01/27 08:37:10;;;;;;;;;26.60;24.00;;;;;9.04;46.73;99044.88;6213357;28;97061;-70
2022/01/27 08:40:15;;;;;;;;;29.00;26.00;;;;;8.92;47.11;99041.97;6214790;28;97193;-70
2022/01/27 08:43:39;;;;;;;;;27.80;25.40;;;;;8.79;46.78;99016.97;6215077;28;98072;-70
2022/01/27 08:46:44;;;;;;;;;27.00;26.00;;;;;8.93;47.12;99032.03;6211950;28;97324;-69
2022/01/27 08:49:47;;;;;;;;;31.00;27.40;;;;;8.87;47.15;99039.06;6214863;28;96639;-69
2022/01/27 08:52:51;;;;;;;;;31.60;28.00;;;;;8.94;47.23;99039.88;6214049;28;96436;-71
2022/01/27 08:55:55;;;;;;;;;30.80;28.00;;;;;8.89;47.24;99020.88;6215380;28;97616;-70
2022/01/27 08:58:58;;;;;;;;;30.00;28.00;;;;;9.23;46.87;99046.72;6213539;28;96649;-70
2022/01/27 09:02:04;;;;;;;;;30.20;27.00;;;;;9.27;46.67;99049.81;6196281;28;99627;-70
2022/01/27 09:05:08;;;;;;;;;30.00;26.00;;;;;9.44;46.33;99051.00;6210086;28;98654;-69
2022/01/27 09:08:11;;;;;;;;;33.20;28.00;;;;;9.53;46.48;99055.13;6214446;28;97449;-71
2022/01/27 09:11:14;;;;;;;;;30.75;26.75;;;;;9.51;46.35;99036.50;6214660;28;96991;-70
2022/01/27 09:14:18;;;;;;;;;31.50;26.00;;;;;9.76;46.13;99057.34;6187690;28;97745;-71
2022/01/27 09:17:25;;;;;;;;;28.40;27.00;;;;;9.80;45.68;99047.81;6204744;28;98026;-70
2022/01/27 09:20:29;;;;;;;;;29.60;25.60;;;;;9.87;45.31;99046.72;6214716;28;98555;-70
2022/01/27 09:23:33;;;;;;;;;33.50;27.00;;;;;9.95;45.09;99061.84;6214136;28;96971;-70
2022/01/27 09:26:42;;;;;;;;;32.60;28.00;;;;;10.03;45.24;99048.13;6191133;28;97275;-70
2022/01/27 09:29:47;;;;;;;;;27.00;24.00;;;;;10.00;45.02;99035.09;6209279;28;97433;-70
2022/01/27 09:32:52;;;;;;;;;28.20;25.80;;;;;9.99;45.19;99028.88;6212993;28;96421;-70
2022/01/27 09:35:55;;;;;;;;;27.50;24.25;;;;;10.04;44.78;99012.06;6215026;28;98021;-70
2022/01/27 09:38:59;;;;;;;;;29.20;27.20;;;;;10.08;44.54;99015.13;6213682;28;97085;-70
2022/01/27 09:42:05;;;;;;;;;32.00;29.00;;;;;10.20;44.58;99006.22;6212839;28;96478;-71
2022/01/27 09:45:09;;;;;;;;;31.40;25.60;;;;;10.20;44.21;99011.59;6212885;28;97284;-70
2022/01/27 09:48:16;;;;;;;;;27.40;24.00;;;;;10.12;44.36;99005.59;6211900;28;97027;-70
2022/01/27 09:51:38;;;;;;;;;30.20;26.80;;;;;10.06;44.32;99001.09;6205669;28;96624;-71
2022/01/27 09:54:41;;;;;;;;;25.40;24.40;;;;;9.80;44.52;99004.72;6212584;28;97115;-70
2022/01/27 09:57:46;;;;;;;;;31.40;28.00;;;;;9.60;44.82;98994.03;6210333;28;96585;-71
2022/01/27 10:00:52;;;;;;;;;29.00;27.60;;;;;9.62;44.96;98985.75;6209689;28;97767;-72
2022/01/27 10:03:59;;;;;;;;;28.50;26.00;;;;;9.56;45.27;98990.94;6210479;28;97470;-71
2022/01/27 10:07:03;;;;;;;;;30.50;26.75;;;;;9.56;45.15;98980.19;6206531;28;96361;-69
2022/01/27 10:10:10;;;;;;;;;30.00;26.00;;;;;9.66;44.97;98963.56;6190611;28;98448;-70
2022/01/27 10:13:30;;;;;;;;;31.00;28.20;;;;;9.74;45.31;98971.41;6190073;28;97034;-71
2022/01/27 10:16:35;;;;;;;;;29.40;26.00;;;;;9.72;44.89;98970.81;6204617;28;97449;-70
2022/01/27 10:19:40;;;;;;;;;25.40;23.00;;;;;9.70;44.54;98945.13;6192468;28;97683;-70
2022/01/27 10:23:11;;;;;;;;;30.00;27.00;;;;;9.65;44.83;98948.47;6192498;28;96974;-71
2022/01/27 10:26:20;;;;;;;;;29.00;24.00;;;;;9.57;44.63;98936.09;6212823;28;96430;-71
2022/01/27 10:29:35;;;;;;;;;26.00;23.00;;;;;9.42;45.19;98922.06;6193963;28;100074;-71
2022/01/27 10:32:41;;;;;;;;;26.20;23.20;;;;;9.36;45.46;98911.31;6197354;28;97243;-69
2022/01/27 10:35:47;;;;;;;;;27.00;23.20;;;;;9.32;45.39;98905.56;6197077;28;96660;-69
2022/01/27 10:38:53;;;;;;;;;26.60;23.60;;;;;9.32;45.51;98900.16;6198493;28;96606;-70
2022/01/27 10:41:59;;;;;;;;;28.80;25.80;;;;;9.40;45.68;98886.47;6208082;28;96619;-70
2022/01/27 10:45:07;;;;;;;;;26.50;24.00;;;;;9.45;45.50;98870.50;6210545;28;99530;-71
2022/01/27 10:48:17;;;;;;;;;31.00;26.50;;;;;9.49;45.42;98865.50;6210313;28;98612;-71
2022/01/27 10:51:25;;;;;;;;;32.50;27.00;;;;;9.24;45.54;98860.03;6211105;28;97507;-69
2022/01/27 10:54:37;;;;;;;;;30.40;27.40;;;;;9.21;45.84;98865.84;6203219;28;96618;-69
2022/01/27 10:57:43;;;;;;;;;26.80;24.00;;;;;9.31;46.20;98857.31;6200568;28;98036;-70
2022/01/27 11:00:46;;;;;;;;;27.50;23.50;;;;;9.38;45.79;98858.94;6198187;28;97409;-71
2022/01/27 11:03:51;;;;;;;;;23.60;22.00;;;;;9.36;45.46;98858.34;6208708;28;97849;-71
2022/01/27 11:06:57;;;;;;;;;24.50;21.50;;;;;9.39;45.19;98846.31;6210227;28;97461;-71
2022/01/27 11:10:04;;;;;;;;;24.50;21.00;;;;;9.36;45.06;98844.88;6209631;28;98002;-70
2022/01/27 11:13:09;;;;;;;;;22.00;20.00;;;;;9.46;45.10;98853.31;6210574;28;97979;-70
2022/01/27 11:16:16;;;;;;;;;21.40;19.40;;;;;9.41;45.09;98833.47;6211809;28;98440;-70
2022/01/27 11:19:34;;;;;;;;;20.20;18.00;;;;;9.37;44.62;98829.56;6210725;28;97299;-70
2022/01/27 11:22:46;;;;;;;;;21.25;20.25;;;;;9.24;45.14;98849.28;6212391;28;97477;-71
2022/01/27 11:25:53;;;;;;;;;22.80;19.80;;;;;9.17;44.92;98828.84;6208040;28;97506;-71
2022/01/27 11:28:58;;;;;;;;;21.00;18.60;;;;;9.19;45.09;98837.53;6198801;28;97791;-71
2022/01/27 11:32:27;;;;;;;;;22.00;18.00;;;;;9.33;44.45;98818.44;6207042;28;96719;-71
2022/01/27 11:35:31;;;;;;;;;20.80;16.00;;;;;9.23;44.03;98819.94;6209896;28;97253;-72
2022/01/27 11:38:39;;;;;;;;;15.40;14.60;;;;;9.30;43.86;98826.91;6211216;28;97648;-71
2022/01/27 11:41:44;;;;;;;;;14.00;14.00;;;;;9.40;43.76;98813.81;6212537;28;97442;-69
2022/01/27 11:44:48;;;;;;;;;16.50;14.00;;;;;9.12;43.73;98814.19;6212153;28;97056;-70
2022/01/27 11:48:14;;;;;;;;;16.80;15.80;;;;;9.16;43.93;98798.44;6211402;28;97728;-71
2022/01/27 11:51:17;;;;;;;;;14.00;13.00;;;;;9.19;43.87;98797.19;6211237;28;99536;-70
2022/01/27 11:54:27;;;;;;;;;17.50;15.00;;;;;9.26;43.81;98811.41;6213555;28;97551;-69
2022/01/27 11:57:42;;;;;;;;;15.60;14.00;;;;;9.15;43.51;98812.91;6216185;28;97293;-70
2022/01/27 12:01:21;;;;;;;;;16.00;14.00;;;;;9.01;43.56;98812.16;6216556;28;96472;-70
2022/01/27 12:04:26;;;;;;;;;14.60;13.00;;;;;8.90;43.69;98810.13;6209700;28;97055;-70
2022/01/27 12:07:30;;;;;;;;;16.00;15.00;;;;;8.82;44.04;98807.69;6197077;28;96953;-71
2022/01/27 12:10:42;;;;;;;;;13.00;13.00;;;;;8.76;44.30;98791.56;6203315;28;96974;-69
2022/01/27 12:14:06;;;;;;;;;15.00;13.60;;;;;8.67;44.06;98758.72;6201025;28;97386;-70
2022/01/27 12:17:21;;;;;;;;;14.75;13.75;;;;;8.68;44.42;98755.84;6193617;28;97943;-69
2022/01/27 12:20:44;;;;;;;;;14.33;13.00;;;;;8.66;44.22;98733.72;6205377;28;97557;-70
2022/01/27 12:24:19;;;;;;;;;16.60;14.00;;;;;8.73;44.48;98749.00;6205037;28;98049;-69
2022/01/27 12:27:25;;;;;;;;;14.80;13.80;;;;;8.71;44.54;98754.56;6197074;28;97072;-70
2022/01/27 12:30:59;;;;;;;;;14.50;14.00;;;;;8.56;44.64;98733.34;6201067;28;98354;-70
2022/01/27 12:34:03;;;;;;;;;17.00;15.00;;;;;8.57;44.79;98729.63;6214107;28;96824;-70
2022/01/27 12:37:09;;;;;;;;;14.75;14.00;;;;;8.42;44.99;98710.25;6212727;28;99446;-70
2022/01/27 12:40:17;;;;;;;;;18.40;15.40;;;;;8.33;45.09;98716.06;6214668;28;96986;-71
2022/01/27 12:43:22;;;;;;;;;16.00;15.00;;;;;8.41;45.22;98711.28;6213218;28;96692;-69
2022/01/27 12:46:26;;;;;;;;;19.75;17.75;;;;;8.37;45.46;98695.81;6208369;28;97410;-71
2022/01/27 12:49:36;;;;;;;;;23.00;19.00;;;;;8.32;45.58;98683.00;6195318;28;99135;-70
2022/01/27 12:52:43;;;;;;;;;19.00;16.00;;;;;8.32;45.49;98693.75;6212717;28;98152;-71
2022/01/27 12:55:46;;;;;;;;;18.00;17.00;;;;;8.46;45.27;98689.16;6214888;28;97476;-70
2022/01/27 12:58:50;;;;;;;;;18.00;16.00;;;;;8.45;45.23;98680.28;6211491;28;96835;-70
2022/01/27 13:01:58;;;;;;;;;17.60;15.60;;;;;8.42;45.10;98671.81;6214846;28;97409;-70
2022/01/27 13:05:03;;;;;;;;;20.80;16.40;;;;;8.36;45.35;98670.78;6213179;28;97858;-69
2022/01/27 13:08:08;;;;;;;;;17.60;17.00;;;;;8.50;45.38;98685.03;6213215;28;97503;-71
2022/01/27 13:11:13;;;;;;;;;18.00;17.00;;;;;8.57;45.37;98675.06;6210877;28;99456;-71
2022/01/27 13:14:18;;;;;;;;;21.50;18.50;;;;;8.59;45.22;98673.81;6192238;28;98089;-69
2022/01/27 13:17:31;;;;;;;;;20.40;18.40;;;;;8.66;45.14;98666.53;6214179;28;96625;-70
2022/01/27 13:20:38;;;;;;;;;21.00;16.50;;;;;8.78;44.95;98665.84;6213821;28;97462;-71
2022/01/27 13:23:46;;;;;;;;;21.60;19.00;;;;;8.83;44.78;98652.59;6212222;28;97102;-70
2022/01/27 13:26:50;;;;;;;;;19.50;17.75;;;;;8.91;44.78;98647.78;6211281;28;96851;-71
2022/01/27 13:30:00;;;;;;;;;18.25;17.25;;;;;8.94;44.66;98646.53;6212446;28;97968;-69
2022/01/27 13:33:07;;;;;;;;;21.00;17.60;;;;;8.94;44.31;98652.72;6214708;28;96969;-70
2022/01/27 13:36:17;;;;;;;;;22.00;19.00;;;;;8.96;44.56;98647.13;6212908;28;96824;-70
2022/01/27 13:39:36;;;;;;;;;23.40;20.40;;;;;8.90;44.55;98646.13;6211643;28;98160;-69
2022/01/27 13:42:52;;;;;;;;;18.00;18.00;;;;;8.86;45.11;98639.53;6207055;28;96667;-70
2022/01/27 13:45:57;;;;;;;;;21.20;18.20;;;;;8.93;44.70;98642.19;6195694;28;97212;-72
2022/01/27 13:49:05;;;;;;;;;19.00;17.00;;;;;8.93;44.78;98634.97;6198024;28;96615;-69
2022/01/27 13:52:12;;;;;;;;;18.60;18.00;;;;;8.95;44.66;98632.03;6212767;28;96569;-71
2022/01/27 13:55:17;;;;;;;;;21.00;19.20;;;;;9.02;44.76;98633.66;6200831;28;97535;-69
2022/01/27 13:58:29;;;;;;;;;22.00;21.00;;;;;8.95;44.77;98635.53;6204309;28;96729;-70
2022/01/27 14:01:34;;;;;;;;;24.00;20.00;;;;;8.94;45.01;98625.81;6193017;28;97103;-70
2022/01/27 14:04:44;;;;;;;;;23.60;21.00;;;;;8.87;45.05;98624.22;6190705;28;97116;-70
2022/01/27 14:07:51;;;;;;;;;22.00;19.60;;;;;8.78;44.63;98633.59;6198224;28;97922;-70
2022/01/27 14:10:55;;;;;;;;;24.00;21.00;;;;;8.80;45.25;98621.59;6222438;28;97004;-70
2022/01/27 14:13:59;;;;;;;;;25.20;21.60;;;;;8.78;45.20;98614.78;6207325;28;100549;-70
2022/01/27 14:17:04;;;;;;;;;26.25;22.00;;;;;8.81;45.13;98620.53;6194213;28;97098;-70
2022/01/27 14:20:14;;;;;;;;;25.25;22.75;;;;;8.86;45.12;98615.34;6204285;28;97533;-70
2022/01/27 14:23:20;;;;;;;;;23.50;18.50;;;;;8.85;45.03;98620.94;6206002;28;100509;-71
2022/01/27 14:26:29;;;;;;;;;24.20;20.40;;;;;8.87;45.13;98624.22;6209888;28;96830;-70
2022/01/27 14:29:33;;;;;;;;;23.00;20.00;;;;;8.94;45.04;98619.66;6208774;28;96779;-71
2022/01/27 14:32:38;;;;;;;;;24.80;21.00;;;;;9.01;45.09;98626.63;6207160;28;98192;-72
2022/01/27 14:35:42;;;;;;;;;26.00;22.75;;;;;8.99;45.23;98635.97;6192165;28;98179;-70
2022/01/27 14:38:47;;;;;;;;;26.50;22.75;;;;;9.02;45.21;98622.91;6226353;28;96882;-71
2022/01/27 14:41:51;;;;;;;;;23.60;22.00;;;;;9.04;45.33;98628.06;6210602;28;97550;-70
2022/01/27 14:44:55;;;;;;;;;26.00;22.40;;;;;8.96;45.18;98625.63;6208932;28;96870;-71
2022/01/27 14:48:03;;;;;;;;;22.20;20.60;;;;;8.88;45.38;98620.50;6210607;28;97230;-70
2022/01/27 14:51:08;;;;;;;;;26.40;21.60;;;;;8.78;45.46;98617.47;6211702;28;96750;-70
2022/01/27 14:54:12;;;;;;;;;22.60;20.60;;;;;8.76;45.32;98619.53;6191603;28;97873;-70